createdAt,value
2022-10-17T00:01:06.859Z,84.81
2022-10-17T00:03:36.900Z,84.73
2022-10-17T00:06:10.599Z,84.69
2022-10-17T00:08:41.038Z,84.75
2022-10-17T00:11:15.638Z,84.94
2022-10-17T00:13:43.668Z,84.95
2022-10-17T00:16:11.679Z,84.94
2022-10-17T00:18:39.539Z,84.87
2022-10-17T00:21:15.559Z,84.85
2022-10-17T00:23:43.521Z,84.85
2022-10-17T00:26:11.402Z,84.76
2022-10-17T00:28:39.520Z,84.76
2022-10-17T00:31:08.159Z,84.75
2022-10-17T00:33:36.279Z,84.60
2022-10-17T00:36:12.751Z,84.52
2022-10-17T00:38:43.382Z,84.44
2022-10-17T00:41:13.714Z,84.36
2022-10-17T00:44:02.220Z,84.39
2022-10-17T00:46:36.930Z,84.23
2022-10-17T00:49:11.010Z,84.12
2022-10-17T00:51:45.243Z,84.31
2022-10-17T00:54:16.476Z,84.46
2022-10-17T00:56:46.966Z,84.56
2022-10-17T00:59:18.858Z,84.60
2022-10-17T01:01:54.302Z,84.53
2022-10-17T01:04:22.561Z,84.50
2022-10-17T01:06:50.473Z,84.51
2022-10-17T01:09:18.839Z,84.55
2022-10-17T01:11:58.961Z,84.65
2022-10-17T01:14:40.664Z,84.71
2022-10-17T01:17:47.621Z,84.63
2022-10-17T01:20:29.823Z,84.66
2022-10-17T01:23:16.615Z,84.74
2022-10-17T01:26:03.456Z,84.79
2022-10-17T01:28:57.097Z,84.88
2022-10-17T01:31:47.851Z,84.90
2022-10-17T01:34:32.595Z,84.96
2022-10-17T01:37:16.146Z,85.09
2022-10-17T01:39:49.580Z,85.09
2022-10-17T01:42:20.331Z,85.13
2022-10-17T01:45:00.313Z,85.11
2022-10-17T01:47:33.846Z,85.25
2022-10-17T01:50:18.868Z,85.27
2022-10-17T01:52:53.263Z,85.51
2022-10-17T01:55:38.249Z,85.73
2022-10-17T01:58:24.704Z,85.81
2022-10-17T02:02:07.366Z,86.18
2022-10-17T02:04:36.899Z,86.35
2022-10-17T02:07:13.409Z,86.52
2022-10-17T02:09:41.337Z,86.65
2022-10-17T02:12:21.465Z,86.88
2022-10-17T02:15:22.163Z,86.86
2022-10-17T02:18:15.965Z,86.92
2022-10-17T02:20:55.143Z,86.84
2022-10-17T02:23:41.403Z,86.90
2022-10-17T02:26:21.476Z,86.79
2022-10-17T02:28:59.038Z,86.87
2022-10-17T02:31:42.099Z,86.88
2022-10-17T02:34:19.962Z,86.84
2022-10-17T02:36:56.270Z,87.07
2022-10-17T02:39:27.746Z,87.05
2022-10-17T02:42:01.978Z,86.99
2022-10-17T02:44:32.584Z,87.13
2022-10-17T02:47:13.169Z,87.09
2022-10-17T02:49:48.700Z,86.97
2022-10-17T02:52:28.544Z,86.97
2022-10-17T02:55:05.010Z,86.97
2022-10-17T02:57:50.353Z,86.89
2022-10-17T03:00:19.985Z,86.68
2022-10-17T03:02:51.563Z,86.63
2022-10-17T03:05:22.829Z,86.58
2022-10-17T03:07:50.781Z,86.59
2022-10-17T03:10:19.309Z,86.52
2022-10-17T03:12:48.642Z,86.40
2022-10-17T03:15:16.901Z,86.45
2022-10-17T03:20:14.904Z,86.28
2022-10-17T03:22:42.973Z,86.16
2022-10-17T03:25:11.119Z,86.14
2022-10-17T03:27:39.111Z,86.31
2022-10-17T03:30:07.901Z,86.30
2022-10-17T03:32:36.562Z,86.32
2022-10-17T03:35:04.884Z,86.36
2022-10-17T03:37:33.088Z,86.48
2022-10-17T03:40:01.235Z,86.61
2022-10-17T03:42:32.387Z,86.66
2022-10-17T03:45:00.347Z,86.80
2022-10-17T03:47:29.587Z,86.95
2022-10-17T03:49:58.040Z,87.18
2022-10-17T03:52:26.298Z,87.29
2022-10-17T03:54:54.819Z,87.23
2022-10-17T03:57:22.698Z,87.33
2022-10-17T03:59:52.334Z,87.60
2022-10-17T04:02:21.116Z,87.84
2022-10-17T04:04:50.357Z,87.93
2022-10-17T04:07:18.392Z,88.03
2022-10-17T04:09:46.704Z,88.06
2022-10-17T04:12:19.553Z,88.11
2022-10-17T04:14:47.864Z,88.31
2022-10-17T04:17:15.836Z,88.51
2022-10-17T04:19:43.745Z,88.64
2022-10-17T04:22:11.732Z,88.77
2022-10-17T04:24:40.313Z,89.09
2022-10-17T04:27:19.778Z,89.11
2022-10-17T04:29:47.908Z,88.98
2022-10-17T04:32:18.535Z,88.78
2022-10-17T04:34:52.266Z,88.67
2022-10-17T04:37:21.544Z,88.59
2022-10-17T04:39:50.951Z,88.50
2022-10-17T04:42:18.780Z,88.56
2022-10-17T04:44:46.961Z,88.72
2022-10-17T04:47:16.055Z,88.62
2022-10-17T04:49:44.437Z,88.62
2022-10-17T04:52:12.436Z,88.69
2022-10-17T04:54:49.821Z,88.62
2022-10-17T04:57:19.950Z,88.62
2022-10-17T05:03:02.655Z,88.19
2022-10-17T05:05:37.642Z,88.04
2022-10-17T05:08:12.960Z,88.03
2022-10-17T05:10:44.047Z,88.07
2022-10-17T05:13:12.784Z,88.15
2022-10-17T05:15:41.532Z,88.19
2022-10-17T05:18:09.408Z,88.28
2022-10-17T05:20:37.590Z,88.36
2022-10-17T05:23:07.220Z,88.54
2022-10-17T05:25:38.253Z,88.61
2022-10-17T05:28:06.487Z,88.66
2022-10-17T05:30:37.575Z,88.81
2022-10-17T05:33:06.740Z,88.80
2022-10-17T05:35:34.834Z,88.73
2022-10-17T05:38:02.884Z,88.65
2022-10-17T05:40:31.584Z,88.67
2022-10-17T05:42:59.970Z,88.61
2022-10-17T05:45:27.928Z,88.69
2022-10-17T05:47:55.833Z,88.74
2022-10-17T05:50:25.255Z,88.53
2022-10-17T05:53:09.964Z,88.32
2022-10-17T05:55:41.685Z,88.36
2022-10-17T05:58:14.298Z,88.37
2022-10-17T06:00:50.926Z,88.33
2022-10-17T06:03:18.759Z,88.39
2022-10-17T06:05:47.559Z,88.51
2022-10-17T06:08:15.599Z,88.67
2022-10-17T06:10:43.495Z,88.65
2022-10-17T06:13:11.335Z,88.90
2022-10-17T06:15:39.109Z,88.93
2022-10-17T06:18:09.170Z,88.83
2022-10-17T06:20:37.599Z,88.72
2022-10-17T06:23:06.347Z,88.51
2022-10-17T06:25:52.542Z,88.61
2022-10-17T06:28:20.424Z,88.40
2022-10-17T06:30:48.247Z,88.01
2022-10-17T06:33:16.760Z,88.08
2022-10-17T06:35:50.711Z,88.16
2022-10-17T06:38:19.488Z,87.94
2022-10-17T06:40:47.665Z,87.85
2022-10-17T06:43:15.599Z,87.47
2022-10-17T06:46:19.796Z,85.55
2022-10-17T06:49:07.609Z,84.03
2022-10-17T06:51:55.790Z,83.97
2022-10-17T06:54:31.457Z,83.20
2022-10-17T06:57:08.763Z,82.72
2022-10-17T07:00:04.345Z,82.47
2022-10-17T07:02:39.077Z,82.32
2022-10-17T07:05:07.351Z,81.98
2022-10-17T07:07:38.926Z,82.31
2022-10-17T07:10:10.325Z,82.54
2022-10-17T07:12:38.641Z,82.85
2022-10-17T07:15:07.688Z,82.77
2022-10-17T07:17:35.483Z,82.81
2022-10-17T07:20:03.520Z,83.08
2022-10-17T07:22:33.732Z,83.19
2022-10-17T07:25:02.656Z,82.23
2022-10-17T07:27:35.406Z,81.40
2022-10-17T07:30:03.653Z,80.92
2022-10-17T07:32:36.028Z,81.03
2022-10-17T07:35:04.898Z,81.20
2022-10-17T07:37:33.796Z,81.04
2022-10-17T07:40:02.113Z,80.38
2022-10-17T07:42:30.088Z,80.13
2022-10-17T07:44:58.942Z,80.23
2022-10-17T07:47:31.431Z,80.51
2022-10-17T07:50:00.539Z,80.08
2022-10-17T07:52:28.488Z,79.81
2022-10-17T07:54:56.474Z,79.16
2022-10-17T07:57:24.272Z,78.66
2022-10-17T07:59:52.835Z,78.82
2022-10-17T08:02:26.008Z,78.60
2022-10-17T08:04:54.614Z,79.13
2022-10-17T08:07:26.784Z,78.92
2022-10-17T08:09:57.396Z,79.04
2022-10-17T08:12:26.228Z,78.78
2022-10-17T08:14:54.320Z,78.59
2022-10-17T08:17:22.112Z,78.42
2022-10-17T08:19:49.860Z,78.04
2022-10-17T08:22:17.987Z,77.22
2022-10-17T08:24:46.378Z,76.74
2022-10-17T08:27:14.453Z,76.82
2022-10-17T08:29:42.489Z,76.97
2022-10-17T08:32:10.476Z,76.46
2022-10-17T08:34:38.418Z,76.37
2022-10-17T08:37:06.316Z,76.05
2022-10-17T08:39:34.135Z,75.41
2022-10-17T08:42:52.715Z,75.53
2022-10-17T08:45:26.284Z,74.87
2022-10-17T08:48:12.637Z,74.97
2022-10-17T08:50:41.004Z,75.02
2022-10-17T08:53:20.936Z,75.28
2022-10-17T08:55:54.368Z,75.08
2022-10-17T08:58:24.892Z,74.96
2022-10-17T09:01:06.916Z,74.34
2022-10-17T09:03:51.574Z,73.99
2022-10-17T09:06:30.131Z,73.25
2022-10-17T09:09:22.720Z,72.89
2022-10-17T09:12:12.636Z,73.05
2022-10-17T09:14:46.420Z,72.40
2022-10-17T09:17:39.239Z,72.49
2022-10-17T09:20:21.599Z,71.81
2022-10-17T09:23:02.541Z,71.20
2022-10-17T09:25:35.341Z,71.15
2022-10-17T09:28:27.870Z,71.03
2022-10-17T09:31:04.678Z,69.87
2022-10-17T09:33:53.833Z,69.69
2022-10-17T09:36:33.622Z,70.18
2022-10-17T09:39:11.067Z,70.54
2022-10-17T09:41:47.209Z,70.88
2022-10-17T09:44:25.719Z,70.76
2022-10-17T09:47:18.211Z,70.95
2022-10-17T09:49:47.624Z,71.27
2022-10-17T09:52:39.713Z,71.38
2022-10-17T09:55:35.761Z,71.22
2022-10-17T09:58:05.901Z,71.25
2022-10-17T10:00:42.870Z,71.53
2022-10-17T10:03:13.827Z,71.42
2022-10-17T10:05:43.355Z,70.72
2022-10-17T10:08:16.948Z,70.45
2022-10-17T10:10:45.326Z,70.61
2022-10-17T10:13:13.100Z,71.03
2022-10-17T10:15:43.549Z,70.95
2022-10-17T10:18:26.759Z,70.54
2022-10-17T10:21:07.051Z,70.02
2022-10-17T10:23:40.136Z,69.74
2022-10-17T10:26:25.951Z,69.96
2022-10-17T10:29:01.926Z,69.76
2022-10-17T10:31:36.657Z,69.37
2022-10-17T10:34:29.071Z,67.31
2022-10-17T10:37:06.856Z,68.34
2022-10-17T10:39:40.077Z,68.75
2022-10-17T10:42:19.019Z,67.21
2022-10-17T10:44:48.716Z,67.34
2022-10-17T10:47:16.900Z,66.73
2022-10-17T10:49:45.092Z,65.16
2022-10-17T10:52:22.742Z,65.69
2022-10-17T10:55:25.961Z,66.15
2022-10-17T10:58:02.863Z,66.41
2022-10-17T11:00:34.551Z,65.74
2022-10-17T11:03:19.424Z,65.86
2022-10-17T11:05:58.464Z,65.09
2022-10-17T11:08:38.427Z,64.75
2022-10-17T11:11:47.935Z,64.69
2022-10-17T11:14:25.079Z,63.88
2022-10-17T11:17:05.593Z,63.21
2022-10-17T11:20:02.960Z,62.64
2022-10-17T11:22:42.172Z,62.03
2022-10-17T11:25:36.183Z,62.50
2022-10-17T11:28:11.279Z,61.78
2022-10-17T11:31:07.862Z,58.81
2022-10-17T11:34:07.131Z,58.59
2022-10-17T11:36:38.936Z,58.13
2022-10-17T11:39:23.972Z,56.74
2022-10-17T11:41:58.956Z,56.00
2022-10-17T11:44:36.506Z,55.47
2022-10-17T11:47:34.085Z,55.27
2022-10-17T11:53:20.728Z,55.23
2022-10-17T11:55:50.856Z,54.74
2022-10-17T11:58:55.425Z,54.71
2022-10-17T12:01:48.987Z,54.25
2022-10-17T12:04:47.635Z,53.78
2022-10-17T12:07:47.042Z,53.68
2022-10-17T12:10:33.597Z,54.05
2022-10-17T12:13:29.176Z,54.13
2022-10-17T12:16:18.052Z,54.68
2022-10-17T12:18:47.997Z,55.61
2022-10-17T12:21:16.107Z,55.41
2022-10-17T12:23:53.400Z,55.29
2022-10-17T12:26:27.905Z,53.72
2022-10-17T12:28:57.344Z,52.63
2022-10-17T12:31:33.366Z,52.47
2022-10-17T12:34:04.173Z,52.29
2022-10-17T12:36:32.022Z,53.00
2022-10-17T12:39:02.848Z,51.83
2022-10-17T12:41:39.617Z,49.71
2022-10-17T12:44:14.133Z,50.02
2022-10-17T12:46:51.314Z,49.64
2022-10-17T12:49:47.745Z,50.47
2022-10-17T12:52:15.557Z,49.33
2022-10-17T12:55:00.315Z,48.79
2022-10-17T12:57:43.590Z,48.95
2022-10-17T13:00:59.426Z,49.41
2022-10-17T13:03:41.468Z,48.94
2022-10-17T13:06:19.646Z,48.13
2022-10-17T13:08:56.146Z,47.56
2022-10-17T13:11:29.249Z,47.54
2022-10-17T13:14:00.813Z,47.89
2022-10-17T13:16:37.649Z,47.97
2022-10-17T13:19:17.913Z,46.82
2022-10-17T13:22:00.979Z,46.94
2022-10-17T13:24:35.177Z,46.16
2022-10-17T13:27:04.783Z,45.68
2022-10-17T13:29:33.254Z,46.31
2022-10-17T13:32:05.603Z,45.83
2022-10-17T13:34:34.119Z,44.96
2022-10-17T13:37:05.871Z,44.76
2022-10-17T13:39:55.676Z,45.85
2022-10-17T13:42:30.038Z,45.30
2022-10-17T13:44:59.334Z,44.82
2022-10-17T13:47:30.652Z,45.64
2022-10-17T13:49:59.551Z,45.71
2022-10-17T13:52:30.421Z,45.80
2022-10-17T13:55:17.598Z,45.90
2022-10-17T13:57:45.736Z,46.13
2022-10-17T14:00:22.928Z,46.11
2022-10-17T14:02:50.761Z,45.79
2022-10-17T14:05:20.700Z,45.27
2022-10-17T14:08:13.324Z,45.36
2022-10-17T14:10:43.535Z,45.00
2022-10-17T14:13:30.148Z,44.93
2022-10-17T14:16:04.389Z,45.54
2022-10-17T14:18:36.622Z,45.39
2022-10-17T14:24:14.593Z,46.05
2022-10-17T14:26:58.986Z,46.22
2022-10-17T14:29:32.698Z,46.44
2022-10-17T14:32:08.686Z,46.94
2022-10-17T14:34:38.983Z,47.05
2022-10-17T14:37:39.117Z,47.12
2022-10-17T14:40:08.057Z,47.79
2022-10-17T14:42:40.608Z,48.27
2022-10-17T14:45:14.683Z,48.39
2022-10-17T14:47:43.912Z,48.73
2022-10-17T14:50:12.032Z,49.22
2022-10-17T14:52:40.897Z,49.41
2022-10-17T14:55:27.224Z,49.64
2022-10-17T14:57:55.300Z,50.15
2022-10-17T15:00:24.362Z,50.50
2022-10-17T15:02:54.473Z,51.17
2022-10-17T15:05:23.496Z,51.73
2022-10-17T15:07:52.089Z,52.36
2022-10-17T15:10:34.319Z,52.89
2022-10-17T15:13:26.605Z,53.29
2022-10-17T15:15:52.471Z,53.60
2022-10-17T15:18:20.665Z,54.17
2022-10-17T15:20:55.292Z,54.50
2022-10-17T15:23:32.609Z,55.00
2022-10-17T15:26:01.210Z,55.35
2022-10-17T15:28:29.066Z,55.47
2022-10-17T15:30:56.877Z,55.68
2022-10-17T15:33:24.651Z,56.02
2022-10-17T15:35:52.437Z,56.32
2022-10-17T15:38:20.176Z,56.91
2022-10-17T15:40:50.963Z,57.13
2022-10-17T15:43:20.055Z,57.19
2022-10-17T15:45:48.654Z,57.31
2022-10-17T15:48:28.374Z,57.68
2022-10-17T15:50:56.621Z,57.96
2022-10-17T15:53:24.459Z,58.27
2022-10-17T15:55:52.357Z,58.48
2022-10-17T15:58:20.303Z,58.76
2022-10-17T16:00:48.842Z,59.16
2022-10-17T16:05:53.005Z,59.61
2022-10-17T16:08:20.880Z,59.68
2022-10-17T16:10:49.444Z,60.05
2022-10-17T16:13:23.286Z,60.23
2022-10-17T16:15:51.202Z,60.47
2022-10-17T16:18:20.171Z,60.55
2022-10-17T16:20:48.328Z,60.85
2022-10-17T16:23:16.129Z,61.08
2022-10-17T16:25:44.143Z,61.27
2022-10-17T16:28:12.177Z,61.49
2022-10-17T16:30:44.927Z,61.68
2022-10-17T16:33:13.145Z,61.79
2022-10-17T16:35:41.084Z,61.93
2022-10-17T16:38:08.843Z,62.10
2022-10-17T16:40:38.206Z,62.29
2022-10-17T16:43:06.430Z,62.46
2022-10-17T16:45:34.369Z,62.54
2022-10-17T16:48:02.368Z,62.71
2022-10-17T16:50:35.234Z,62.82
2022-10-17T16:53:03.973Z,63.08
2022-10-17T16:55:31.766Z,63.12
2022-10-17T16:58:00.244Z,63.26
2022-10-17T17:00:28.366Z,63.35
2022-10-17T17:02:56.269Z,63.45
2022-10-17T17:05:24.139Z,63.50
2022-10-17T17:07:52.026Z,63.58
2022-10-17T17:10:19.893Z,63.59
2022-10-17T17:12:47.736Z,63.67
2022-10-17T17:15:15.621Z,63.79
2022-10-17T17:17:53.624Z,63.81
2022-10-17T17:20:23.429Z,63.86
2022-10-17T17:22:52.429Z,64.01
2022-10-17T17:25:22.569Z,64.05
2022-10-17T17:27:50.553Z,64.14
2022-10-17T17:30:18.616Z,64.27
2022-10-17T17:32:46.506Z,64.32
2022-10-17T17:35:14.296Z,64.52
2022-10-17T17:37:42.104Z,64.61
2022-10-17T17:40:10.474Z,64.65
2022-10-17T17:42:38.368Z,64.77
2022-10-17T17:45:06.816Z,64.87
2022-10-17T17:47:34.645Z,64.98
2022-10-17T17:50:03.420Z,65.19
2022-10-17T17:52:31.386Z,65.35
2022-10-17T17:54:59.490Z,65.37
2022-10-17T17:57:30.215Z,65.50
2022-10-17T17:59:58.217Z,65.66
2022-10-17T18:02:26.024Z,65.78
2022-10-17T18:04:53.813Z,65.84
2022-10-17T18:07:22.049Z,65.97
2022-10-17T18:09:51.904Z,66.09
2022-10-17T18:12:19.861Z,66.21
2022-10-17T18:14:48.206Z,66.42
2022-10-17T18:17:16.058Z,66.53
2022-10-17T18:19:43.916Z,66.67
2022-10-17T18:22:11.746Z,66.82
2022-10-17T18:24:39.548Z,67.06
2022-10-17T18:27:07.624Z,67.26
2022-10-17T18:29:35.809Z,67.44
2022-10-17T18:32:03.983Z,67.63
2022-10-17T18:34:31.824Z,67.87
2022-10-17T18:37:00.081Z,68.06
2022-10-17T18:39:28.096Z,68.18
2022-10-17T18:41:55.905Z,68.34
2022-10-17T18:44:24.086Z,68.44
2022-10-17T18:46:52.700Z,68.59
2022-10-17T18:49:24.971Z,68.71
2022-10-17T18:51:52.782Z,68.80
2022-10-17T18:54:22.813Z,68.92
2022-10-17T18:56:52.605Z,69.04
2022-10-17T18:59:21.260Z,69.20
2022-10-17T19:01:49.651Z,69.35
2022-10-17T19:04:17.871Z,69.25
2022-10-17T19:06:45.868Z,69.28
2022-10-17T19:09:15.114Z,69.28
2022-10-17T19:11:43.331Z,69.29
2022-10-17T19:14:15.688Z,69.39
2022-10-17T19:16:49.443Z,69.56
2022-10-17T19:19:23.183Z,69.61
2022-10-17T19:21:51.858Z,69.78
2022-10-17T19:24:25.276Z,69.93
2022-10-17T19:26:55.138Z,70.21
2022-10-17T19:29:28.163Z,70.26
2022-10-17T19:34:28.896Z,70.28
2022-10-17T19:36:57.172Z,70.33
2022-10-17T19:39:26.593Z,70.44
2022-10-17T19:41:54.584Z,70.65
2022-10-17T19:44:22.795Z,70.79
2022-10-17T19:46:51.116Z,70.86
2022-10-17T19:49:19.300Z,70.90
2022-10-17T19:51:47.204Z,71.13
2022-10-17T19:54:18.448Z,71.16
2022-10-17T19:56:46.574Z,71.35
2022-10-17T19:59:16.421Z,71.43
2022-10-17T20:01:45.254Z,71.47
2022-10-17T20:04:13.899Z,71.63
2022-10-17T20:06:42.086Z,71.65
2022-10-17T20:09:15.635Z,71.75
2022-10-17T20:11:45.066Z,71.83
2022-10-17T20:14:13.141Z,71.88
2022-10-17T20:16:41.612Z,71.89
2022-10-17T20:19:11.941Z,71.97
2022-10-17T20:21:40.532Z,72.10
2022-10-17T20:24:12.214Z,72.08
2022-10-17T20:26:40.841Z,72.20
2022-10-17T20:29:13.367Z,72.39
2022-10-17T20:31:43.615Z,72.58
2022-10-17T20:34:14.088Z,72.72
2022-10-17T20:36:42.006Z,72.94
2022-10-17T20:39:12.294Z,73.18
2022-10-17T20:41:40.882Z,73.50
2022-10-17T20:44:09.229Z,73.64
2022-10-17T20:46:39.746Z,73.81
2022-10-17T20:49:16.535Z,73.95
2022-10-17T20:51:45.081Z,74.15
2022-10-17T20:54:13.148Z,74.44
2022-10-17T20:56:41.066Z,74.53
2022-10-17T20:59:12.728Z,74.67
2022-10-17T21:01:40.740Z,74.70
2022-10-17T21:04:40.334Z,74.69
2022-10-17T21:06:56.897Z,74.68
2022-10-17T21:09:25.075Z,74.69
2022-10-17T21:11:55.704Z,74.71
2022-10-17T21:14:24.969Z,74.71
2022-10-17T21:16:52.826Z,74.86
2022-10-17T21:19:21.819Z,74.90
2022-10-17T21:21:49.996Z,74.90
2022-10-17T21:24:20.788Z,75.06
2022-10-17T21:26:55.694Z,74.93
2022-10-17T21:29:24.136Z,75.04
2022-10-17T21:31:52.908Z,75.13
2022-10-17T21:34:25.160Z,75.06
2022-10-17T21:36:53.416Z,75.02
2022-10-17T21:39:22.128Z,75.06
2022-10-17T21:41:49.974Z,75.17
2022-10-17T21:44:20.852Z,75.18
2022-10-17T21:46:49.810Z,75.38
2022-10-17T21:49:20.335Z,75.47
2022-10-17T21:51:49.165Z,75.58
2022-10-17T21:54:18.495Z,75.80
2022-10-17T21:56:46.307Z,76.07
2022-10-17T21:59:14.150Z,76.09
2022-10-17T22:01:44.516Z,76.14
2022-10-17T22:04:15.104Z,76.34
2022-10-17T22:06:45.095Z,76.39
2022-10-17T22:09:16.412Z,76.60
2022-10-17T22:11:48.274Z,76.75
2022-10-17T22:14:18.343Z,76.86
2022-10-17T22:16:47.955Z,76.90
2022-10-17T22:19:19.443Z,77.00
2022-10-17T22:21:47.419Z,77.05
2022-10-17T22:24:17.683Z,77.21
2022-10-17T22:26:46.639Z,77.28
2022-10-17T22:29:14.611Z,77.39
2022-10-17T22:31:42.837Z,77.47
2022-10-17T22:34:13.494Z,77.54
2022-10-17T22:36:42.097Z,77.59
2022-10-17T22:39:10.863Z,77.72
2022-10-17T22:41:38.633Z,77.73
2022-10-17T22:44:06.917Z,77.87
2022-10-17T22:46:34.797Z,78.08
2022-10-17T22:49:03.411Z,78.25
2022-10-17T22:51:32.619Z,78.52
2022-10-17T22:54:00.832Z,78.70
2022-10-17T22:56:28.717Z,78.78
2022-10-17T22:58:56.636Z,79.11
2022-10-17T23:01:25.902Z,79.08
2022-10-17T23:03:54.105Z,79.04
2022-10-17T23:06:22.248Z,79.47
2022-10-17T23:08:50.213Z,79.65
2022-10-17T23:11:18.070Z,79.43
2022-10-17T23:13:46.082Z,79.29
2022-10-17T23:16:13.895Z,79.58
2022-10-17T23:18:42.362Z,80.15
2022-10-17T23:21:10.455Z,80.07
2022-10-17T23:23:38.496Z,79.93
2022-10-17T23:26:09.442Z,79.99
2022-10-17T23:28:38.107Z,80.00
2022-10-17T23:31:20.176Z,80.02
2022-10-17T23:33:49.756Z,79.88
2022-10-17T23:36:19.979Z,80.03
2022-10-17T23:38:48.372Z,80.14
2022-10-17T23:41:16.828Z,80.07
2022-10-17T23:43:44.680Z,80.15
2022-10-17T23:46:12.917Z,79.93
2022-10-17T23:48:41.118Z,79.92
2022-10-17T23:51:10.270Z,79.85
2022-10-17T23:53:39.353Z,79.59
2022-10-17T23:56:08.494Z,79.53
2022-10-17T23:58:37.524Z,79.63
